sensor_id;sensor_type;location;lat;lon;timestamp;temperature;humidity
17236;DHT22;8734;59.272;17.780;2023-05-14T00:02:18;7.30;99.90
17236;DHT22;8734;59.272;17.780;2023-05-14T00:04:46;7.30;99.90
17236;DHT22;8734;59.272;17.780;2023-05-14T00:07:15;7.20;99.90
17236;DHT22;8734;59.272;17.780;2023-05-14T00:09:43;7.20;99.90
17236;DHT22;8734;59.272;17.780;2023-05-14T00:12:13;7.20;99.90
17236;DHT22;8734;59.272;17.780;2023-05-14T00:14:41;7.20;99.90
17236;DHT22;8734;59.272;17.780;2023-05-14T00:17:09;7.20;99.90
17236;DHT22;8734;59.272;17.780;2023-05-14T00:19:38;7.20;99.90
17236;DHT22;8734;59.272;17.780;2023-05-14T00:22:07;7.20;99.90
17236;DHT22;8734;59.272;17.780;2023-05-14T00:24:36;7.10;99.90
17236;DHT22;8734;59.272;17.780;2023-05-14T00:27:05;7.10;99.90
17236;DHT22;8734;59.272;17.780;2023-05-14T00:29:34;7.10;99.90
17236;DHT22;8734;59.272;17.780;2023-05-14T00:32:03;7.00;99.90
17236;DHT22;8734;59.272;17.780;2023-05-14T00:34:31;7.00;99.90
17236;DHT22;8734;59.272;17.780;2023-05-14T00:36:59;7.00;99.90
17236;DHT22;8734;59.272;17.780;2023-05-14T00:39:28;7.00;99.90
17236;DHT22;8734;59.272;17.780;2023-05-14T00:41:56;7.00;99.90
17236;DHT22;8734;59.272;17.780;2023-05-14T00:44:24;6.90;99.90
17236;DHT22;8734;59.272;17.780;2023-05-14T00:46:54;6.80;99.90
17236;DHT22;8734;59.272;17.780;2023-05-14T00:49:22;6.80;99.90
17236;DHT22;8734;59.272;17.780;2023-05-14T00:51:51;6.80;99.90
17236;DHT22;8734;59.272;17.780;2023-05-14T00:54:20;6.80;99.90
17236;DHT22;8734;59.272;17.780;2023-05-14T00:56:48;6.80;99.90
17236;DHT22;8734;59.272;17.780;2023-05-14T00:59:17;6.80;99.90
17236;DHT22;8734;59.272;17.780;2023-05-14T01:01:45;6.80;99.90
17236;DHT22;8734;59.272;17.780;2023-05-14T01:04:15;6.70;99.90
17236;DHT22;8734;59.272;17.780;2023-05-14T01:06:52;6.70;99.90
17236;DHT22;8734;59.272;17.780;2023-05-14T01:09:25;6.70;99.90
17236;DHT22;8734;59.272;17.780;2023-05-14T01:12:01;6.70;99.90
17236;DHT22;8734;59.272;17.780;2023-05-14T01:14:36;6.70;99.90
17236;DHT22;8734;59.272;17.780;2023-05-14T01:17:10;6.70;99.90
17236;DHT22;8734;59.272;17.780;2023-05-14T01:19:42;6.60;99.90
17236;DHT22;8734;59.272;17.780;2023-05-14T01:22:12;6.60;99.90
17236;DHT22;8734;59.272;17.780;2023-05-14T01:24:41;6.60;99.90
17236;DHT22;8734;59.272;17.780;2023-05-14T01:27:14;6.60;99.90
17236;DHT22;8734;59.272;17.780;2023-05-14T01:29:47;6.60;99.90
17236;DHT22;8734;59.272;17.780;2023-05-14T01:32:17;6.60;99.90
17236;DHT22;8734;59.272;17.780;2023-05-14T01:34:49;6.50;99.90
17236;DHT22;8734;59.272;17.780;2023-05-14T01:37:20;6.50;99.90
17236;DHT22;8734;59.272;17.780;2023-05-14T01:39:49;6.50;99.90
17236;DHT22;8734;59.272;17.780;2023-05-14T01:42:18;6.50;99.90
17236;DHT22;8734;59.272;17.780;2023-05-14T01:44:47;6.40;99.90
17236;DHT22;8734;59.272;17.780;2023-05-14T01:47:16;6.40;99.90
17236;DHT22;8734;59.272;17.780;2023-05-14T01:49:44;6.40;99.90
17236;DHT22;8734;59.272;17.780;2023-05-14T01:52:12;6.40;99.90
17236;DHT22;8734;59.272;17.780;2023-05-14T01:54:42;6.40;99.90
17236;DHT22;8734;59.272;17.780;2023-05-14T01:57:10;6.40;99.90
17236;DHT22;8734;59.272;17.780;2023-05-14T01:59:39;6.30;99.90
17236;DHT22;8734;59.272;17.780;2023-05-14T02:02:07;6.30;99.90
17236;DHT22;8734;59.272;17.780;2023-05-14T02:04:35;6.30;99.90
17236;DHT22;8734;59.272;17.780;2023-05-14T02:07:04;6.20;99.90
17236;DHT22;8734;59.272;17.780;2023-05-14T02:09:32;6.20;99.90
17236;DHT22;8734;59.272;17.780;2023-05-14T02:12:01;6.20;99.90
17236;DHT22;8734;59.272;17.780;2023-05-14T02:14:30;6.10;99.90
17236;DHT22;8734;59.272;17.780;2023-05-14T02:16:58;6.10;99.90
17236;DHT22;8734;59.272;17.780;2023-05-14T02:19:26;6.10;99.90
17236;DHT22;8734;59.272;17.780;2023-05-14T02:21:54;6.20;99.90
17236;DHT22;8734;59.272;17.780;2023-05-14T02:24:23;6.20;99.90
17236;DHT22;8734;59.272;17.780;2023-05-14T02:26:51;6.10;99.90
17236;DHT22;8734;59.272;17.780;2023-05-14T02:29:21;6.10;99.90
17236;DHT22;8734;59.272;17.780;2023-05-14T02:31:49;6.10;99.90
17236;DHT22;8734;59.272;17.780;2023-05-14T02:34:17;6.10;99.90
17236;DHT22;8734;59.272;17.780;2023-05-14T02:36:46;6.10;99.90
17236;DHT22;8734;59.272;17.780;2023-05-14T02:39:14;6.10;99.90
17236;DHT22;8734;59.272;17.780;2023-05-14T02:41:42;6.10;99.90
17236;DHT22;8734;59.272;17.780;2023-05-14T02:44:10;6.00;99.90
17236;DHT22;8734;59.272;17.780;2023-05-14T02:46:40;6.10;99.90
17236;DHT22;8734;59.272;17.780;2023-05-14T02:49:08;6.10;99.90
17236;DHT22;8734;59.272;17.780;2023-05-14T02:51:36;6.10;99.90
17236;DHT22;8734;59.272;17.780;2023-05-14T02:54:04;6.10;99.90
17236;DHT22;8734;59.272;17.780;2023-05-14T02:56:33;6.10;99.90
17236;DHT22;8734;59.272;17.780;2023-05-14T02:59:01;6.10;99.90
17236;DHT22;8734;59.272;17.780;2023-05-14T03:01:30;6.10;99.90
17236;DHT22;8734;59.272;17.780;2023-05-14T03:04:00;6.10;99.90
17236;DHT22;8734;59.272;17.780;2023-05-14T03:06:28;6.10;99.90
17236;DHT22;8734;59.272;17.780;2023-05-14T03:08:57;6.10;99.90
17236;DHT22;8734;59.272;17.780;2023-05-14T03:11:25;6.20;99.90
17236;DHT22;8734;59.272;17.780;2023-05-14T03:13:53;6.20;99.90
17236;DHT22;8734;59.272;17.780;2023-05-14T03:16:22;6.20;99.90
17236;DHT22;8734;59.272;17.780;2023-05-14T03:18:50;6.30;99.90
17236;DHT22;8734;59.272;17.780;2023-05-14T03:21:19;6.20;99.90
17236;DHT22;8734;59.272;17.780;2023-05-14T03:23:48;6.30;99.90
17236;DHT22;8734;59.272;17.780;2023-05-14T03:26:16;6.30;99.90
17236;DHT22;8734;59.272;17.780;2023-05-14T03:28:44;6.30;99.90
17236;DHT22;8734;59.272;17.780;2023-05-14T03:31:12;6.40;99.90
17236;DHT22;8734;59.272;17.780;2023-05-14T03:33:41;6.40;99.90
17236;DHT22;8734;59.272;17.780;2023-05-14T03:36:09;6.40;99.90
17236;DHT22;8734;59.272;17.780;2023-05-14T03:38:38;6.40;99.90
17236;DHT22;8734;59.272;17.780;2023-05-14T03:41:07;6.40;99.90
17236;DHT22;8734;59.272;17.780;2023-05-14T03:43:35;6.50;99.90
17236;DHT22;8734;59.272;17.780;2023-05-14T03:46:03;6.60;99.90
17236;DHT22;8734;59.272;17.780;2023-05-14T03:48:32;6.60;99.90
17236;DHT22;8734;59.272;17.780;2023-05-14T03:51:00;6.70;99.90
17236;DHT22;8734;59.272;17.780;2023-05-14T03:53:28;6.70;99.90
17236;DHT22;8734;59.272;17.780;2023-05-14T03:55:58;6.70;99.90
17236;DHT22;8734;59.272;17.780;2023-05-14T03:58:26;6.80;99.90
17236;DHT22;8734;59.272;17.780;2023-05-14T04:00:54;6.80;99.90
17236;DHT22;8734;59.272;17.780;2023-05-14T04:03:23;6.80;99.90
17236;DHT22;8734;59.272;17.780;2023-05-14T04:05:51;6.90;99.90
17236;DHT22;8734;59.272;17.780;2023-05-14T04:08:19;6.90;99.90
17236;DHT22;8734;59.272;17.780;2023-05-14T04:10:48;7.00;99.90
17236;DHT22;8734;59.272;17.780;2023-05-14T04:13:18;7.10;99.90
17236;DHT22;8734;59.272;17.780;2023-05-14T04:15:46;7.10;99.90
17236;DHT22;8734;59.272;17.780;2023-05-14T04:18:14;7.20;99.90
17236;DHT22;8734;59.272;17.780;2023-05-14T04:20:43;7.30;99.90
17236;DHT22;8734;59.272;17.780;2023-05-14T04:23:11;7.40;99.90
17236;DHT22;8734;59.272;17.780;2023-05-14T04:25:39;7.50;99.90
17236;DHT22;8734;59.272;17.780;2023-05-14T04:28:07;7.50;99.90
17236;DHT22;8734;59.272;17.780;2023-05-14T04:30:37;7.60;99.90
17236;DHT22;8734;59.272;17.780;2023-05-14T04:33:06;7.70;99.90
17236;DHT22;8734;59.272;17.780;2023-05-14T04:35:34;7.80;99.90
17236;DHT22;8734;59.272;17.780;2023-05-14T04:38:03;7.90;99.90
17236;DHT22;8734;59.272;17.780;2023-05-14T04:40:33;7.90;99.90
17236;DHT22;8734;59.272;17.780;2023-05-14T04:43:01;8.00;99.90
17236;DHT22;8734;59.272;17.780;2023-05-14T04:45:29;8.10;99.90
17236;DHT22;8734;59.272;17.780;2023-05-14T04:48:01;8.30;99.90
17236;DHT22;8734;59.272;17.780;2023-05-14T04:50:30;8.40;99.90
17236;DHT22;8734;59.272;17.780;2023-05-14T04:52:58;8.50;99.90
17236;DHT22;8734;59.272;17.780;2023-05-14T04:55:26;8.60;99.90
17236;DHT22;8734;59.272;17.780;2023-05-14T04:57:55;8.70;99.90
17236;DHT22;8734;59.272;17.780;2023-05-14T05:00:23;8.80;99.90
17236;DHT22;8734;59.272;17.780;2023-05-14T05:02:52;8.90;99.90
17236;DHT22;8734;59.272;17.780;2023-05-14T05:05:22;9.00;99.90
17236;DHT22;8734;59.272;17.780;2023-05-14T05:07:50;9.10;99.90
17236;DHT22;8734;59.272;17.780;2023-05-14T05:10:19;9.10;99.90
17236;DHT22;8734;59.272;17.780;2023-05-14T05:12:47;9.20;99.90
17236;DHT22;8734;59.272;17.780;2023-05-14T05:15:15;9.30;99.90
17236;DHT22;8734;59.272;17.780;2023-05-14T05:17:44;9.50;99.90
17236;DHT22;8734;59.272;17.780;2023-05-14T05:20:12;9.70;99.90
17236;DHT22;8734;59.272;17.780;2023-05-14T05:22:42;9.90;99.90
17236;DHT22;8734;59.272;17.780;2023-05-14T05:25:10;10.10;99.90
17236;DHT22;8734;59.272;17.780;2023-05-14T05:27:38;10.10;99.90
17236;DHT22;8734;59.272;17.780;2023-05-14T05:30:07;10.10;99.90
17236;DHT22;8734;59.272;17.780;2023-05-14T05:32:36;10.20;99.90
17236;DHT22;8734;59.272;17.780;2023-05-14T05:35:05;10.30;99.90
17236;DHT22;8734;59.272;17.780;2023-05-14T05:37:33;10.40;99.90
17236;DHT22;8734;59.272;17.780;2023-05-14T05:40:04;10.50;99.90
17236;DHT22;8734;59.272;17.780;2023-05-14T05:42:33;10.60;99.90
17236;DHT22;8734;59.272;17.780;2023-05-14T05:45:01;10.70;99.90
17236;DHT22;8734;59.272;17.780;2023-05-14T05:47:29;10.80;99.90
17236;DHT22;8734;59.272;17.780;2023-05-14T05:49:57;11.00;99.90
17236;DHT22;8734;59.272;17.780;2023-05-14T05:52:26;11.10;99.90
17236;DHT22;8734;59.272;17.780;2023-05-14T05:54:54;11.20;99.90
17236;DHT22;8734;59.272;17.780;2023-05-14T05:57:23;11.30;99.90
17236;DHT22;8734;59.272;17.780;2023-05-14T05:59:53;11.40;99.90
17236;DHT22;8734;59.272;17.780;2023-05-14T06:02:21;11.60;99.90
17236;DHT22;8734;59.272;17.780;2023-05-14T06:04:49;11.80;99.90
17236;DHT22;8734;59.272;17.780;2023-05-14T06:07:19;12.00;99.90
17236;DHT22;8734;59.272;17.780;2023-05-14T06:09:47;12.20;99.90
17236;DHT22;8734;59.272;17.780;2023-05-14T06:12:15;12.40;99.90
17236;DHT22;8734;59.272;17.780;2023-05-14T06:14:45;12.60;99.90
17236;DHT22;8734;59.272;17.780;2023-05-14T06:17:13;12.70;99.90
17236;DHT22;8734;59.272;17.780;2023-05-14T06:19:42;12.70;99.90
17236;DHT22;8734;59.272;17.780;2023-05-14T06:22:10;12.80;99.90
17236;DHT22;8734;59.272;17.780;2023-05-14T06:24:38;12.90;99.90
17236;DHT22;8734;59.272;17.780;2023-05-14T06:27:06;13.10;99.90
17236;DHT22;8734;59.272;17.780;2023-05-14T06:29:35;13.40;99.90
17236;DHT22;8734;59.272;17.780;2023-05-14T06:32:05;13.60;99.90
17236;DHT22;8734;59.272;17.780;2023-05-14T06:34:33;13.70;99.90
17236;DHT22;8734;59.272;17.780;2023-05-14T06:37:02;13.90;99.90
17236;DHT22;8734;59.272;17.780;2023-05-14T06:39:30;14.10;99.90
17236;DHT22;8734;59.272;17.780;2023-05-14T06:41:58;14.30;99.90
17236;DHT22;8734;59.272;17.780;2023-05-14T06:44:27;14.50;99.90
17236;DHT22;8734;59.272;17.780;2023-05-14T06:46:55;14.70;99.90
17236;DHT22;8734;59.272;17.780;2023-05-14T06:49:25;14.80;99.90
17236;DHT22;8734;59.272;17.780;2023-05-14T06:51:53;15.00;99.90
17236;DHT22;8734;59.272;17.780;2023-05-14T06:54:21;15.10;99.90
17236;DHT22;8734;59.272;17.780;2023-05-14T06:56:49;15.30;99.90
17236;DHT22;8734;59.272;17.780;2023-05-14T06:59:18;15.50;99.90
17236;DHT22;8734;59.272;17.780;2023-05-14T07:01:46;15.80;99.90
17236;DHT22;8734;59.272;17.780;2023-05-14T07:04:14;16.00;99.90
17236;DHT22;8734;59.272;17.780;2023-05-14T07:06:44;16.20;99.90
17236;DHT22;8734;59.272;17.780;2023-05-14T07:09:12;16.40;99.90
17236;DHT22;8734;59.272;17.780;2023-05-14T07:11:40;16.70;99.90
17236;DHT22;8734;59.272;17.780;2023-05-14T07:14:09;16.90;99.90
17236;DHT22;8734;59.272;17.780;2023-05-14T07:16:37;17.10;99.90
17236;DHT22;8734;59.272;17.780;2023-05-14T07:19:06;17.30;99.90
17236;DHT22;8734;59.272;17.780;2023-05-14T07:21:34;17.50;99.90
17236;DHT22;8734;59.272;17.780;2023-05-14T07:24:04;17.90;99.90
17236;DHT22;8734;59.272;17.780;2023-05-14T07:26:33;18.40;99.90
17236;DHT22;8734;59.272;17.780;2023-05-14T07:29:01;18.70;99.90
17236;DHT22;8734;59.272;17.780;2023-05-14T07:31:29;19.00;99.90
17236;DHT22;8734;59.272;17.780;2023-05-14T07:33:57;19.20;99.90
17236;DHT22;8734;59.272;17.780;2023-05-14T07:36:26;19.50;99.90
17236;DHT22;8734;59.272;17.780;2023-05-14T07:38:54;19.90;99.90
17236;DHT22;8734;59.272;17.780;2023-05-14T07:41:24;20.10;99.90
17236;DHT22;8734;59.272;17.780;2023-05-14T07:43:52;20.40;99.90
17236;DHT22;8734;59.272;17.780;2023-05-14T07:46:20;20.90;99.90
17236;DHT22;8734;59.272;17.780;2023-05-14T07:48:49;21.00;99.90
17236;DHT22;8734;59.272;17.780;2023-05-14T07:51:17;21.30;99.90
17236;DHT22;8734;59.272;17.780;2023-05-14T07:53:46;21.60;99.90
17236;DHT22;8734;59.272;17.780;2023-05-14T07:56:14;21.70;99.90
17236;DHT22;8734;59.272;17.780;2023-05-14T07:58:44;21.80;99.90
17236;DHT22;8734;59.272;17.780;2023-05-14T08:01:12;21.90;99.90
17236;DHT22;8734;59.272;17.780;2023-05-14T08:03:40;21.80;99.90
17236;DHT22;8734;59.272;17.780;2023-05-14T08:06:09;22.20;99.90
17236;DHT22;8734;59.272;17.780;2023-05-14T08:08:37;22.50;99.90
17236;DHT22;8734;59.272;17.780;2023-05-14T08:11:05;22.80;99.90
17236;DHT22;8734;59.272;17.780;2023-05-14T08:13:34;22.80;99.90
17236;DHT22;8734;59.272;17.780;2023-05-14T08:16:04;22.80;99.90
17236;DHT22;8734;59.272;17.780;2023-05-14T08:18:33;22.70;99.90
17236;DHT22;8734;59.272;17.780;2023-05-14T08:21:01;22.60;99.90
17236;DHT22;8734;59.272;17.780;2023-05-14T08:23:29;22.60;99.90
17236;DHT22;8734;59.272;17.780;2023-05-14T08:25:58;22.60;99.90
17236;DHT22;8734;59.272;17.780;2023-05-14T08:28:26;22.90;99.90
17236;DHT22;8734;59.272;17.780;2023-05-14T08:30:54;23.00;99.90
17236;DHT22;8734;59.272;17.780;2023-05-14T08:33:24;22.50;99.90
17236;DHT22;8734;59.272;17.780;2023-05-14T08:35:52;22.10;99.90
17236;DHT22;8734;59.272;17.780;2023-05-14T08:38:22;22.10;99.90
17236;DHT22;8734;59.272;17.780;2023-05-14T08:40:55;21.80;99.90
17236;DHT22;8734;59.272;17.780;2023-05-14T08:43:26;21.90;99.90
17236;DHT22;8734;59.272;17.780;2023-05-14T08:45:58;22.00;99.90
17236;DHT22;8734;59.272;17.780;2023-05-14T08:48:31;22.30;99.90
17236;DHT22;8734;59.272;17.780;2023-05-14T08:51:01;22.40;99.90
17236;DHT22;8734;59.272;17.780;2023-05-14T08:53:29;22.30;99.90
17236;DHT22;8734;59.272;17.780;2023-05-14T08:55:59;22.70;99.90
17236;DHT22;8734;59.272;17.780;2023-05-14T08:58:28;23.40;99.90
17236;DHT22;8734;59.272;17.780;2023-05-14T09:00:56;23.30;99.90
17236;DHT22;8734;59.272;17.780;2023-05-14T09:03:25;23.00;99.90
17236;DHT22;8734;59.272;17.780;2023-05-14T09:05:55;22.60;99.90
17236;DHT22;8734;59.272;17.780;2023-05-14T09:08:26;22.60;99.90
17236;DHT22;8734;59.272;17.780;2023-05-14T09:10:54;23.00;99.90
17236;DHT22;8734;59.272;17.780;2023-05-14T09:13:22;23.30;99.90
17236;DHT22;8734;59.272;17.780;2023-05-14T09:15:54;23.40;99.90
17236;DHT22;8734;59.272;17.780;2023-05-14T09:18:23;23.30;99.90
17236;DHT22;8734;59.272;17.780;2023-05-14T09:20:52;23.80;99.90
17236;DHT22;8734;59.272;17.780;2023-05-14T09:23:24;24.40;99.90
17236;DHT22;8734;59.272;17.780;2023-05-14T09:25:53;25.20;99.90
17236;DHT22;8734;59.272;17.780;2023-05-14T09:28:22;25.40;99.90
17236;DHT22;8734;59.272;17.780;2023-05-14T09:30:54;24.80;99.90
17236;DHT22;8734;59.272;17.780;2023-05-14T09:33:25;25.30;99.90
17236;DHT22;8734;59.272;17.780;2023-05-14T09:35:57;25.50;98.80
17236;DHT22;8734;59.272;17.780;2023-05-14T09:38:29;24.40;99.50
17236;DHT22;8734;59.272;17.780;2023-05-14T09:40:58;23.90;99.90
17236;DHT22;8734;59.272;17.780;2023-05-14T09:43:27;24.30;99.90
17236;DHT22;8734;59.272;17.780;2023-05-14T09:45:55;25.00;99.10
17236;DHT22;8734;59.272;17.780;2023-05-14T09:48:24;25.00;99.70
17236;DHT22;8734;59.272;17.780;2023-05-14T09:50:52;25.20;99.40
17236;DHT22;8734;59.272;17.780;2023-05-14T09:53:20;25.70;99.40
17236;DHT22;8734;59.272;17.780;2023-05-14T09:55:50;25.60;99.10
17236;DHT22;8734;59.272;17.780;2023-05-14T09:58:18;25.60;99.90
17236;DHT22;8734;59.272;17.780;2023-05-14T10:00:47;25.30;95.60
17236;DHT22;8734;59.272;17.780;2023-05-14T10:03:17;24.90;95.70
17236;DHT22;8734;59.272;17.780;2023-05-14T10:05:48;24.40;96.10
17236;DHT22;8734;59.272;17.780;2023-05-14T10:08:21;24.90;94.70
17236;DHT22;8734;59.272;17.780;2023-05-14T10:10:53;25.40;97.30
17236;DHT22;8734;59.272;17.780;2023-05-14T10:13:25;25.50;93.60
17236;DHT22;8734;59.272;17.780;2023-05-14T10:16:03;25.40;94.10
17236;DHT22;8734;59.272;17.780;2023-05-14T10:18:39;24.90;93.30
17236;DHT22;8734;59.272;17.780;2023-05-14T10:21:09;24.40;94.20
17236;DHT22;8734;59.272;17.780;2023-05-14T10:23:39;24.70;93.80
17236;DHT22;8734;59.272;17.780;2023-05-14T10:26:09;25.30;94.00
17236;DHT22;8734;59.272;17.780;2023-05-14T10:28:38;25.80;90.40
17236;DHT22;8734;59.272;17.780;2023-05-14T10:31:08;26.00;88.20
17236;DHT22;8734;59.272;17.780;2023-05-14T10:33:45;25.80;91.60
17236;DHT22;8734;59.272;17.780;2023-05-14T10:36:17;25.60;91.30
17236;DHT22;8734;59.272;17.780;2023-05-14T10:38:46;25.50;85.90
17236;DHT22;8734;59.272;17.780;2023-05-14T10:41:23;25.40;89.80
17236;DHT22;8734;59.272;17.780;2023-05-14T10:43:51;25.50;87.20
17236;DHT22;8734;59.272;17.780;2023-05-14T10:46:19;25.70;82.70
17236;DHT22;8734;59.272;17.780;2023-05-14T10:48:48;25.20;86.60
17236;DHT22;8734;59.272;17.780;2023-05-14T10:51:17;25.30;85.60
17236;DHT22;8734;59.272;17.780;2023-05-14T10:53:48;25.70;84.00
17236;DHT22;8734;59.272;17.780;2023-05-14T10:56:17;25.20;84.80
17236;DHT22;8734;59.272;17.780;2023-05-14T10:58:49;25.30;85.80
17236;DHT22;8734;59.272;17.780;2023-05-14T11:01:17;25.10;84.00
17236;DHT22;8734;59.272;17.780;2023-05-14T11:03:46;24.90;87.10
17236;DHT22;8734;59.272;17.780;2023-05-14T11:06:14;24.70;89.20
17236;DHT22;8734;59.272;17.780;2023-05-14T11:08:43;24.40;85.40
17236;DHT22;8734;59.272;17.780;2023-05-14T11:11:12;24.30;87.70
17236;DHT22;8734;59.272;17.780;2023-05-14T11:13:41;24.20;87.30
17236;DHT22;8734;59.272;17.780;2023-05-14T11:16:12;24.30;86.10
17236;DHT22;8734;59.272;17.780;2023-05-14T11:18:56;24.40;86.70
17236;DHT22;8734;59.272;17.780;2023-05-14T11:21:27;24.50;90.20
17236;DHT22;8734;59.272;17.780;2023-05-14T11:23:56;25.00;88.60
17236;DHT22;8734;59.272;17.780;2023-05-14T11:26:24;25.20;85.40
17236;DHT22;8734;59.272;17.780;2023-05-14T11:28:53;24.80;83.70
17236;DHT22;8734;59.272;17.780;2023-05-14T11:31:22;25.20;84.40
17236;DHT22;8734;59.272;17.780;2023-05-14T11:33:52;25.30;83.70
17236;DHT22;8734;59.272;17.780;2023-05-14T11:36:21;25.30;81.50
17236;DHT22;8734;59.272;17.780;2023-05-14T11:38:49;25.40;82.30
17236;DHT22;8734;59.272;17.780;2023-05-14T11:41:18;25.00;79.60
17236;DHT22;8734;59.272;17.780;2023-05-14T11:43:49;24.80;78.90
17236;DHT22;8734;59.272;17.780;2023-05-14T11:46:17;24.10;76.50
17236;DHT22;8734;59.272;17.780;2023-05-14T11:48:48;24.10;78.60
17236;DHT22;8734;59.272;17.780;2023-05-14T11:51:16;24.30;76.80
17236;DHT22;8734;59.272;17.780;2023-05-14T11:53:44;24.60;76.80
17236;DHT22;8734;59.272;17.780;2023-05-14T11:56:13;24.50;75.30
17236;DHT22;8734;59.272;17.780;2023-05-14T11:58:47;24.20;76.60
17236;DHT22;8734;59.272;17.780;2023-05-14T12:01:15;24.20;75.10
17236;DHT22;8734;59.272;17.780;2023-05-14T12:03:43;23.90;75.70
17236;DHT22;8734;59.272;17.780;2023-05-14T12:06:13;24.00;75.20
17236;DHT22;8734;59.272;17.780;2023-05-14T12:08:42;23.80;75.90
17236;DHT22;8734;59.272;17.780;2023-05-14T12:11:10;23.80;75.20
17236;DHT22;8734;59.272;17.780;2023-05-14T12:13:38;23.80;75.00
17236;DHT22;8734;59.272;17.780;2023-05-14T12:16:07;23.80;76.30
17236;DHT22;8734;59.272;17.780;2023-05-14T12:18:35;23.70;75.10
17236;DHT22;8734;59.272;17.780;2023-05-14T12:21:05;23.60;76.20
17236;DHT22;8734;59.272;17.780;2023-05-14T12:23:37;23.40;75.00
17236;DHT22;8734;59.272;17.780;2023-05-14T12:26:07;23.50;75.00
17236;DHT22;8734;59.272;17.780;2023-05-14T12:28:38;23.90;74.90
17236;DHT22;8734;59.272;17.780;2023-05-14T12:31:09;24.20;73.30
17236;DHT22;8734;59.272;17.780;2023-05-14T12:33:37;23.70;72.70
17236;DHT22;8734;59.272;17.780;2023-05-14T12:36:06;23.30;75.80
17236;DHT22;8734;59.272;17.780;2023-05-14T12:38:38;23.30;75.80
17236;DHT22;8734;59.272;17.780;2023-05-14T12:41:07;23.50;72.20
17236;DHT22;8734;59.272;17.780;2023-05-14T12:43:35;23.50;72.40
17236;DHT22;8734;59.272;17.780;2023-05-14T12:46:03;23.50;72.30
17236;DHT22;8734;59.272;17.780;2023-05-14T12:48:32;23.40;72.90
17236;DHT22;8734;59.272;17.780;2023-05-14T12:51:00;23.60;73.60
17236;DHT22;8734;59.272;17.780;2023-05-14T12:53:28;23.90;71.60
17236;DHT22;8734;59.272;17.780;2023-05-14T12:55:58;23.60;70.10
17236;DHT22;8734;59.272;17.780;2023-05-14T12:58:26;23.60;70.10
17236;DHT22;8734;59.272;17.780;2023-05-14T13:00:54;23.60;69.20
17236;DHT22;8734;59.272;17.780;2023-05-14T13:03:23;23.70;67.80
17236;DHT22;8734;59.272;17.780;2023-05-14T13:05:53;23.50;69.90
17236;DHT22;8734;59.272;17.780;2023-05-14T13:08:22;23.30;70.80
17236;DHT22;8734;59.272;17.780;2023-05-14T13:10:52;23.30;71.00
17236;DHT22;8734;59.272;17.780;2023-05-14T13:13:22;23.50;72.20
17236;DHT22;8734;59.272;17.780;2023-05-14T13:15:52;23.40;70.50
17236;DHT22;8734;59.272;17.780;2023-05-14T13:18:20;23.60;70.20
17236;DHT22;8734;59.272;17.780;2023-05-14T13:20:48;23.30;65.60
17236;DHT22;8734;59.272;17.780;2023-05-14T13:23:17;23.00;69.00
17236;DHT22;8734;59.272;17.780;2023-05-14T13:25:45;22.80;70.80
17236;DHT22;8734;59.272;17.780;2023-05-14T13:28:15;22.80;68.70
17236;DHT22;8734;59.272;17.780;2023-05-14T13:31:04;22.70;68.70
17236;DHT22;8734;59.272;17.780;2023-05-14T13:33:34;22.50;70.70
17236;DHT22;8734;59.272;17.780;2023-05-14T13:36:03;22.50;72.40
17236;DHT22;8734;59.272;17.780;2023-05-14T13:38:31;22.70;72.10
17236;DHT22;8734;59.272;17.780;2023-05-14T13:41:00;22.80;69.30
17236;DHT22;8734;59.272;17.780;2023-05-14T13:43:29;23.00;69.90
17236;DHT22;8734;59.272;17.780;2023-05-14T13:45:57;23.10;69.40
17236;DHT22;8734;59.272;17.780;2023-05-14T13:48:27;23.00;69.90
17236;DHT22;8734;59.272;17.780;2023-05-14T13:50:56;23.00;67.60
17236;DHT22;8734;59.272;17.780;2023-05-14T13:53:25;23.00;67.60
17236;DHT22;8734;59.272;17.780;2023-05-14T13:55:54;22.80;66.70
17236;DHT22;8734;59.272;17.780;2023-05-14T13:58:24;22.70;67.70
17236;DHT22;8734;59.272;17.780;2023-05-14T14:00:53;22.70;68.00
17236;DHT22;8734;59.272;17.780;2023-05-14T14:03:22;22.70;68.70
17236;DHT22;8734;59.272;17.780;2023-05-14T14:05:52;22.50;68.10
17236;DHT22;8734;59.272;17.780;2023-05-14T14:08:20;22.60;69.00
17236;DHT22;8734;59.272;17.780;2023-05-14T14:10:50;22.60;70.20
17236;DHT22;8734;59.272;17.780;2023-05-14T14:13:20;22.50;67.90
17236;DHT22;8734;59.272;17.780;2023-05-14T14:15:49;22.40;67.50
17236;DHT22;8734;59.272;17.780;2023-05-14T14:18:17;22.30;67.20
17236;DHT22;8734;59.272;17.780;2023-05-14T14:20:45;22.40;67.60
17236;DHT22;8734;59.272;17.780;2023-05-14T14:23:15;22.30;67.80
17236;DHT22;8734;59.272;17.780;2023-05-14T14:25:43;22.30;66.20
17236;DHT22;8734;59.272;17.780;2023-05-14T14:28:11;22.40;65.50
17236;DHT22;8734;59.272;17.780;2023-05-14T14:30:40;22.30;66.30
17236;DHT22;8734;59.272;17.780;2023-05-14T14:33:09;22.40;67.10
17236;DHT22;8734;59.272;17.780;2023-05-14T14:35:38;22.50;66.20
17236;DHT22;8734;59.272;17.780;2023-05-14T14:38:06;22.50;66.60
17236;DHT22;8734;59.272;17.780;2023-05-14T14:40:36;22.40;65.50
17236;DHT22;8734;59.272;17.780;2023-05-14T14:43:05;22.40;66.40
17236;DHT22;8734;59.272;17.780;2023-05-14T14:45:33;22.30;65.90
17236;DHT22;8734;59.272;17.780;2023-05-14T14:48:26;22.40;66.10
17236;DHT22;8734;59.272;17.780;2023-05-14T14:50:56;22.30;65.40
17236;DHT22;8734;59.272;17.780;2023-05-14T14:53:25;22.30;67.10
17236;DHT22;8734;59.272;17.780;2023-05-14T14:55:55;22.30;65.60
17236;DHT22;8734;59.272;17.780;2023-05-14T14:58:23;22.30;67.50
17236;DHT22;8734;59.272;17.780;2023-05-14T15:00:53;22.40;66.00
17236;DHT22;8734;59.272;17.780;2023-05-14T15:03:22;22.30;64.30
17236;DHT22;8734;59.272;17.780;2023-05-14T15:05:51;22.30;66.60
17236;DHT22;8734;59.272;17.780;2023-05-14T15:08:23;22.20;65.00
17236;DHT22;8734;59.272;17.780;2023-05-14T15:10:53;22.10;65.60
17236;DHT22;8734;59.272;17.780;2023-05-14T15:13:22;22.10;65.00
17236;DHT22;8734;59.272;17.780;2023-05-14T15:15:51;22.10;63.90
17236;DHT22;8734;59.272;17.780;2023-05-14T15:18:19;22.10;64.50
17236;DHT22;8734;59.272;17.780;2023-05-14T15:20:48;22.10;64.70
17236;DHT22;8734;59.272;17.780;2023-05-14T15:23:16;22.10;64.20
17236;DHT22;8734;59.272;17.780;2023-05-14T15:25:44;22.10;64.60
17236;DHT22;8734;59.272;17.780;2023-05-14T15:28:14;22.10;63.60
17236;DHT22;8734;59.272;17.780;2023-05-14T15:30:43;22.10;64.50
17236;DHT22;8734;59.272;17.780;2023-05-14T15:33:11;22.20;64.30
17236;DHT22;8734;59.272;17.780;2023-05-14T15:35:42;22.10;63.50
17236;DHT22;8734;59.272;17.780;2023-05-14T15:38:10;22.00;64.30
17236;DHT22;8734;59.272;17.780;2023-05-14T15:40:39;21.80;66.20
17236;DHT22;8734;59.272;17.780;2023-05-14T15:43:07;21.80;65.60
17236;DHT22;8734;59.272;17.780;2023-05-14T15:45:37;21.90;67.40
17236;DHT22;8734;59.272;17.780;2023-05-14T15:48:05;22.00;67.90